Time;durP1;ratioP1;P1;durP2;ratioP2;P2;SDS_P1;SDS_P2;PMS_P1;PMS_P2;Temp;Humidity;BMP_temperature;BMP_pressure;BME280_temperature;BME280_humidity;BME280_pressure;Samples;Min_cycle;Max_cycle;Signal;HPM_P1;HPM_P2
2022/09/28 00:01:22;;;;;;;33.73;22.95;;;;;;;16.03;100.00;98124.20;1697843;84;21922;-69
2022/09/28 00:03:52;;;;;;;32.70;22.98;;;;;;;15.98;100.00;98135.66;1697672;84;20998;-67
2022/09/28 00:06:23;;;;;;;36.48;22.90;;;;;;;16.12;100.00;98134.34;1697742;84;20977;-70
2022/09/28 00:08:49;;;;;;;37.90;24.77;;;;;;;16.17;100.00;98132.57;1697751;84;21553;-65
2022/09/28 00:11:19;;;;;;;35.00;22.75;;;;;;;16.22;100.00;98131.42;1698005;84;21069;-67
2022/09/28 00:13:55;;;;;;;36.80;24.57;;;;;;;16.13;100.00;98135.14;1697739;84;21092;-74
2022/09/28 00:16:25;;;;;;;35.92;22.10;;;;;;;16.06;100.00;98128.97;1697541;84;20981;-72
2022/09/28 00:18:53;;;;;;;33.05;23.50;;;;;;;16.02;100.00;98144.23;1697942;84;20941;-68
2022/09/28 00:21:29;;;;;;;34.60;23.27;;;;;;;16.08;100.00;98141.08;1697656;84;21069;-76
2022/09/28 00:24:14;;;;;;;40.45;25.90;;;;;;;16.13;100.00;98146.25;1697826;84;21053;-68
2022/09/28 00:26:54;;;;;;;35.78;23.65;;;;;;;16.16;100.00;98141.30;1697692;84;21458;-66
2022/09/28 00:29:33;;;;;;;39.30;23.62;;;;;;;16.11;100.00;98134.14;1697900;84;21013;-76
2022/09/28 00:32:04;;;;;;;36.60;23.32;;;;;;;16.05;100.00;98130.94;1697599;84;21029;-72
2022/09/28 00:34:35;;;;;;;36.30;23.80;;;;;;;16.05;100.00;98132.33;1697676;84;20973;-76
2022/09/28 00:37:03;;;;;;;35.00;23.47;;;;;;;16.08;100.00;98128.58;1697753;83;20902;-75
2022/09/28 00:39:34;;;;;;;34.30;21.75;;;;;;;15.97;100.00;98120.97;1697683;84;21176;-67
2022/09/28 00:42:02;;;;;;;33.20;22.22;;;;;;;16.13;100.00;98122.64;1697783;84;21446;-65
2022/09/28 00:44:37;;;;;;;33.20;22.50;;;;;;;16.15;100.00;98133.58;1697758;84;21514;-65
2022/09/28 00:47:32;;;;;;;31.65;21.37;;;;;;;16.15;100.00;98131.38;1697795;83;20874;-67
2022/09/28 00:50:04;;;;;;;36.63;22.10;;;;;;;16.13;100.00;98132.36;1698238;84;20985;-76
2022/09/28 00:52:46;;;;;;;32.28;21.02;;;;;;;16.10;100.00;98127.02;1686276;84;21796;-65
2022/09/28 00:55:16;;;;;;;36.33;23.45;;;;;;;16.08;100.00;98125.21;1697954;84;20937;-69
2022/09/28 00:57:48;;;;;;;32.10;22.32;;;;;;;16.13;100.00;98128.20;1697768;84;20926;-65
2022/09/28 01:00:14;;;;;;;34.30;22.37;;;;;;;16.15;100.00;98127.22;1697955;84;21013;-67
2022/09/28 01:02:42;;;;;;;41.58;22.17;;;;;;;16.16;100.00;98121.85;1697817;84;20993;-76
2022/09/28 01:05:10;;;;;;;35.03;22.58;;;;;;;16.20;100.00;98123.26;1697702;83;20953;-65
2022/09/28 01:07:38;;;;;;;34.53;22.98;;;;;;;16.23;100.00;98120.49;1690963;84;21558;-64
2022/09/28 01:10:05;;;;;;;32.53;22.02;;;;;;;16.18;100.00;98123.06;1667903;84;21494;-68
2022/09/28 01:12:32;;;;;;;35.38;22.30;;;;;;;16.15;100.00;98127.22;1698047;84;20914;-67
2022/09/28 01:14:59;;;;;;;34.27;22.82;;;;;;;16.18;100.00;98125.84;1697707;84;21029;-74
2022/09/28 01:17:40;;;;;;;32.75;21.23;;;;;;;16.15;100.00;98125.25;1697832;84;21628;-68
2022/09/28 01:20:36;;;;;;;33.70;22.67;;;;;;;16.21;100.00;98115.91;1697416;84;21556;-75
2022/09/28 01:23:51;;;;;;;32.13;22.22;;;;;;;16.19;100.00;98118.28;1668470;84;21462;-76
2022/09/28 01:26:53;;;;;;;36.90;22.10;;;;;;;16.24;100.00;98122.07;1697930;84;21597;-73
2022/09/28 01:29:25;;;;;;;31.30;20.65;;;;;;;16.25;100.00;98118.13;1697277;84;21021;-76
2022/09/28 01:32:00;;;;;;;28.98;19.05;;;;;;;16.22;100.00;98118.91;1697462;84;21435;-76
2022/09/28 01:34:31;;;;;;;34.08;20.48;;;;;;;16.24;100.00;98119.91;1697540;84;20954;-73
2022/09/28 01:36:57;;;;;;;30.12;19.82;;;;;;;16.24;100.00;98119.91;1697797;83;21033;-75
2022/09/28 01:39:32;;;;;;;30.95;20.70;;;;;;;16.23;100.00;98119.10;1667993;84;21022;-77
2022/09/28 01:42:03;;;;;;;36.45;22.50;;;;;;;16.22;100.00;98110.58;1690868;84;21065;-76
2022/09/28 01:44:31;;;;;;;32.45;22.22;;;;;;;16.16;100.00;98106.57;1703758;84;21111;-76
2022/09/28 01:47:02;;;;;;;38.15;23.95;;;;;;;16.17;100.00;98094.28;1703290;84;21033;-65
2022/09/28 01:49:35;;;;;;;37.90;24.00;;;;;;;16.20;100.00;98106.00;1706369;84;21017;-77
2022/09/28 01:52:29;;;;;;;41.15;23.90;;;;;;;16.18;100.00;98099.45;1705131;84;20957;-77
2022/09/28 01:55:25;;;;;;;28.35;20.15;;;;;;;16.06;100.00;98106.16;1703750;84;21040;-76
2022/09/28 01:57:57;;;;;;;31.77;19.57;;;;;;;16.23;100.00;98107.98;1706026;84;21812;-77
2022/09/28 02:00:24;;;;;;;31.35;21.73;;;;;;;16.25;100.00;98110.37;1706278;84;20969;-72
2022/09/28 02:03:05;;;;;;;30.90;20.65;;;;;;;16.30;100.00;98109.98;1705938;84;20985;-75
2022/09/28 02:05:38;;;;;;;29.72;20.35;;;;;;;16.32;100.00;98106.81;1706027;84;20958;-76
2022/09/28 02:08:19;;;;;;;33.50;20.17;;;;;;;16.28;100.00;98106.80;1706331;84;21001;-76
2022/09/28 02:10:53;;;;;;;33.88;21.45;;;;;;;16.25;100.00;98108.39;1705874;84;21641;-70
2022/09/28 02:13:41;;;;;;;33.20;20.40;;;;;;;16.26;100.00;98116.12;1706327;84;21505;-77
2022/09/28 02:16:35;;;;;;;40.20;21.57;;;;;;;16.28;100.00;98116.53;1706033;84;21505;-77
2022/09/28 02:19:02;;;;;;;31.82;20.85;;;;;;;16.28;100.00;98118.72;1706000;84;21509;-76
2022/09/28 02:21:57;;;;;;;35.28;21.75;;;;;;;16.30;100.00;98122.49;1703424;84;21013;-75
2022/09/28 02:24:35;;;;;;;37.25;22.37;;;;;;;16.28;100.00;98120.11;1706201;84;21799;-77
2022/09/28 02:27:13;;;;;;;36.88;22.10;;;;;;;16.29;100.00;98111.19;1706037;82;20942;-77
2022/09/28 02:29:41;;;;;;;35.52;20.90;;;;;;;16.26;100.00;98110.56;1706346;84;20937;-65
2022/09/28 02:32:07;;;;;;;31.30;21.10;;;;;;;16.28;100.00;98108.99;1706032;84;20980;-74
2022/09/28 02:34:35;;;;;;;34.53;21.10;;;;;;;16.29;100.00;98104.23;1706050;84;21115;-77
2022/09/28 02:37:02;;;;;;;38.98;23.02;;;;;;;16.30;100.00;98105.82;1706035;82;21251;-66
2022/09/28 02:39:29;;;;;;;35.63;23.05;;;;;;;16.27;100.00;98101.05;1705911;84;20949;-76
2022/09/28 02:42:22;;;;;;;31.42;22.10;;;;;;;16.22;100.00;98101.44;1706192;84;21009;-76
2022/09/28 02:45:36;;;;;;;36.73;21.93;;;;;;;16.21;100.00;98109.55;1706017;84;21511;-77
2022/09/28 02:48:14;;;;;;;30.02;20.27;;;;;;;16.21;100.00;98118.69;1706135;84;20945;-76
2022/09/28 02:51:12;;;;;;;31.55;20.82;;;;;;;16.21;100.00;98123.45;1706090;84;21324;-77
2022/09/28 02:54:09;;;;;;;31.97;21.30;;;;;;;16.22;100.00;98123.08;1705943;84;20984;-77
2022/09/28 02:57:10;;;;;;;33.80;21.75;;;;;;;16.19;100.00;98123.84;1682942;84;21426;-74
2022/09/28 03:00:10;;;;;;;30.65;20.60;;;;;;;16.00;100.00;98120.20;1677149;84;21111;-76
2022/09/28 03:03:09;;;;;;;33.15;21.93;;;;;;;16.23;100.00;98120.49;1706230;84;21064;-74
2022/09/28 03:06:00;;;;;;;39.67;23.87;;;;;;;16.23;100.00;98113.55;1706406;84;21482;-77
2022/09/28 03:08:42;;;;;;;35.20;22.85;;;;;;;16.16;100.00;98107.96;1706085;84;20993;-78
2022/09/28 03:11:17;;;;;;;38.83;22.27;;;;;;;16.09;100.00;98111.52;1706160;84;20997;-76
2022/09/28 03:13:45;;;;;;;34.75;21.90;;;;;;;16.12;100.00;98114.12;1706176;84;21013;-76
2022/09/28 03:16:15;;;;;;;26.95;19.73;;;;;;;16.13;100.00;98117.09;1703739;84;21021;-77
2022/09/28 03:18:42;;;;;;;34.88;22.37;;;;;;;16.17;100.00;98117.91;1706414;84;22109;-76
2022/09/28 03:21:12;;;;;;;35.52;23.02;;;;;;;16.17;100.00;98119.30;1706326;84;21419;-77
2022/09/28 03:23:39;;;;;;;33.15;22.20;;;;;;;16.15;100.00;98124.44;1679924;84;20909;-77
2022/09/28 03:26:12;;;;;;;35.73;22.62;;;;;;;16.14;100.00;98116.69;1705998;82;21502;-66
2022/09/28 03:28:39;;;;;;;36.08;23.00;;;;;;;16.10;100.00;98113.70;1706586;84;21092;-77
2022/09/28 03:31:07;;;;;;;36.48;22.20;;;;;;;16.08;100.00;98111.91;1706079;84;21214;-70
2022/09/28 03:33:35;;;;;;;34.38;21.57;;;;;;;16.02;100.00;98113.67;1706175;82;21458;-78
2022/09/28 03:36:01;;;;;;;29.02;19.57;;;;;;;16.05;100.00;98116.28;1706151;82;21061;-78
2022/09/28 03:38:31;;;;;;;34.45;21.25;;;;;;;16.06;100.00;98111.72;1706015;84;21517;-77
2022/09/28 03:41:00;;;;;;;32.78;20.62;;;;;;;16.07;100.00;98112.49;1706326;84;21553;-78
2022/09/28 03:43:29;;;;;;;32.50;20.40;;;;;;;16.06;100.00;98112.30;1705500;84;21197;-69
2022/09/28 03:46:00;;;;;;;32.78;19.02;;;;;;;16.10;100.00;98113.13;1697732;84;21044;-77
2022/09/28 03:48:30;;;;;;;28.77;19.75;;;;;;;16.15;100.00;98113.33;1690983;84;21117;-75
2022/09/28 03:51:08;;;;;;;30.17;19.55;;;;;;;16.14;100.00;98112.52;1697744;84;20953;-68
2022/09/28 03:53:36;;;;;;;27.93;20.70;;;;;;;16.13;100.00;98114.31;1697871;84;20937;-75
2022/09/28 03:56:10;;;;;;;30.95;20.65;;;;;;;16.14;100.00;98115.30;1697789;84;21858;-76
2022/09/28 03:58:39;;;;;;;30.70;21.07;;;;;;;16.15;100.00;98115.52;1697832;84;21490;-74
2022/09/28 04:01:11;;;;;;;32.40;21.33;;;;;;;16.18;100.00;98120.28;1691113;84;21025;-74
2022/09/28 04:03:38;;;;;;;33.92;21.60;;;;;;;16.18;100.00;98123.06;1698037;84;20972;-73
2022/09/28 04:06:05;;;;;;;32.23;21.27;;;;;;;16.21;100.00;98130.39;1698011;84;21608;-74
2022/09/28 04:08:33;;;;;;;37.45;22.22;;;;;;;16.24;100.00;98121.30;1697753;84;21176;-77
2022/09/28 04:11:01;;;;;;;33.58;21.97;;;;;;;16.24;100.00;98122.07;1697658;84;20969;-76
2022/09/28 04:13:29;;;;;;;33.15;22.35;;;;;;;16.26;100.00;98118.89;1697761;84;21017;-76
2022/09/28 04:15:59;;;;;;;32.98;21.40;;;;;;;16.05;100.00;98117.05;1697718;83;21637;-76
2022/09/28 04:18:27;;;;;;;33.20;20.15;;;;;;;16.20;100.00;98124.06;1697792;84;21557;-75
2022/09/28 04:21:06;;;;;;;35.35;21.82;;;;;;;16.21;100.00;98125.64;1636079;87;21373;-74
2022/09/28 04:23:37;;;;;;;32.40;21.45;;;;;;;16.13;100.00;98126.81;1697583;84;20934;-77
2022/09/28 04:26:08;;;;;;;33.80;23.07;;;;;;;15.97;100.00;98123.74;1697708;84;20890;-76
2022/09/28 04:29:44;;;;;;;;;;;;;;;;;;;;;
2022/09/28 04:31:19;;;;;;;29.92;20.15;;;;;;;16.15;100.00;98118.30;1675525;84;20982;-75
2022/09/28 04:33:46;;;;;;;32.38;21.20;;;;;;;16.20;100.00;98123.26;1697395;84;21174;-76
2022/09/28 04:36:13;;;;;;;30.40;22.30;;;;;;;16.20;100.00;98120.48;1697654;83;20962;-73
2022/09/28 04:38:39;;;;;;;29.40;20.45;;;;;;;16.18;100.00;98112.53;1697848;84;20910;-76
2022/09/28 04:41:07;;;;;;;30.65;20.95;;;;;;;16.16;100.00;98108.77;1697784;84;21017;-76
2022/09/28 04:43:34;;;;;;;29.40;21.23;;;;;;;16.20;100.00;98112.95;1697697;84;20965;-77
2022/09/28 04:46:01;;;;;;;31.48;20.48;;;;;;;16.21;100.00;98108.97;1705977;84;21556;-76
2022/09/28 04:48:29;;;;;;;29.45;20.32;;;;;;;16.22;100.00;98112.55;1705923;84;20941;-76
2022/09/28 04:51:00;;;;;;;30.68;21.55;;;;;;;16.16;100.00;98117.69;1679676;84;21065;-73
2022/09/28 04:53:26;;;;;;;31.95;20.92;;;;;;;16.14;100.00;98115.88;1706519;84;20913;-75
2022/09/28 04:55:58;;;;;;;36.53;23.60;;;;;;;16.18;100.00;98125.04;1706068;84;21003;-69
2022/09/28 04:58:26;;;;;;;30.82;20.95;;;;;;;16.21;100.00;98124.25;1706077;84;21804;-74
2022/09/28 05:01:00;;;;;;;28.47;20.48;;;;;;;16.29;100.00;98123.08;1705939;84;20858;-71
2022/09/28 05:03:41;;;;;;;33.23;21.73;;;;;;;16.34;100.00;98114.97;1667447;84;21526;-75
2022/09/28 05:06:16;;;;;;;33.90;22.52;;;;;;;16.37;100.00;98118.94;1705788;84;21021;-73
2022/09/28 05:08:45;;;;;;;33.35;21.20;;;;;;;16.39;100.00;98122.12;1703482;84;20894;-75
2022/09/28 05:11:13;;;;;;;34.03;22.58;;;;;;;16.41;100.00;98121.14;1706059;84;21343;-76
2022/09/28 05:13:47;;;;;;;31.93;22.22;;;;;;;16.39;100.00;98117.95;1705949;84;21012;-77
2022/09/28 05:16:16;;;;;;;33.10;23.15;;;;;;;16.42;100.00;98122.72;1706372;84;20953;-77
2022/09/28 05:19:01;;;;;;;34.95;22.48;;;;;;;16.49;100.00;98117.77;1706095;84;21485;-77
2022/09/28 05:21:29;;;;;;;30.55;20.50;;;;;;;16.55;100.00;98113.40;1706078;84;21065;-75
2022/09/28 05:23:57;;;;;;;33.28;22.87;;;;;;;16.57;100.00;98104.66;1705984;84;21154;-76
2022/09/28 05:26:24;;;;;;;32.05;22.73;;;;;;;16.58;100.00;98108.44;1703285;84;21115;-69
2022/09/28 05:28:52;;;;;;;34.48;21.95;;;;;;;16.63;100.00;98103.87;1706141;82;21470;-75
2022/09/28 05:31:32;;;;;;;34.33;22.98;;;;;;;16.66;100.00;98099.52;1704892;84;21064;-76
2022/09/28 05:34:02;;;;;;;34.40;23.62;;;;;;;16.63;100.00;98108.66;1705866;84;21021;-76
2022/09/28 05:36:31;;;;;;;29.85;20.20;;;;;;;16.71;100.00;98107.47;1705962;82;21165;-76
2022/09/28 05:38:58;;;;;;;30.50;21.45;;;;;;;16.51;100.00;98116.17;1705976;84;21567;-76
2022/09/28 05:41:25;;;;;;;33.70;23.15;;;;;;;16.51;100.00;98116.17;1706178;84;20937;-75
2022/09/28 05:43:53;;;;;;;32.60;22.10;;;;;;;16.52;100.00;98120.55;1705904;84;21047;-65
2022/09/28 05:46:22;;;;;;;30.52;20.43;;;;;;;16.49;100.00;98114.98;1670247;84;21553;-76
2022/09/28 05:48:51;;;;;;;33.80;21.77;;;;;;;16.49;100.00;98126.11;1696339;84;21401;-76
2022/09/28 05:51:19;;;;;;;29.10;21.07;;;;;;;16.51;100.00;98131.45;1696759;84;20945;-75
2022/09/28 05:53:46;;;;;;;36.28;22.17;;;;;;;16.54;100.00;98132.09;1696785;84;20930;-75
2022/09/28 05:56:15;;;;;;;33.38;22.07;;;;;;;16.56;100.00;98126.13;1696403;84;21006;-75
2022/09/28 05:58:43;;;;;;;32.40;21.80;;;;;;;16.58;100.00;98129.28;1696655;84;20998;-65
2022/09/28 06:01:10;;;;;;;29.95;20.72;;;;;;;16.61;100.00;98127.72;1693629;84;21162;-76
2022/09/28 06:03:38;;;;;;;25.35;18.80;;;;;;;16.63;100.00;98135.08;1696282;84;21033;-71
2022/09/28 06:06:05;;;;;;;24.50;18.12;;;;;;;16.65;100.00;98132.70;1696389;84;21105;-73
2022/09/28 06:08:32;;;;;;;24.55;16.93;;;;;;;16.69;100.00;98133.48;1693637;84;20973;-76
2022/09/28 06:11:14;;;;;;;21.65;16.30;;;;;;;16.72;100.00;98125.73;1695992;83;21049;-76
2022/09/28 06:13:41;;;;;;;24.75;17.87;;;;;;;16.75;100.00;98125.55;1696452;84;21511;-67
2022/09/28 06:16:10;;;;;;;25.90;16.97;;;;;;;16.76;100.00;98116.81;1696695;84;21052;-72
2022/09/28 06:18:40;;;;;;;28.10;16.42;;;;;;;16.74;100.00;98115.02;1693384;84;20991;-69
2022/09/28 06:21:22;;;;;;;19.50;15.50;;;;;;;16.76;100.00;98122.38;1696126;84;20989;-76
2022/09/28 06:23:49;;;;;;;23.45;16.62;;;;;;;16.77;100.00;98118.98;1696678;84;20914;-71
2022/09/28 06:26:17;;;;;;;21.82;16.15;;;;;;;16.78;100.00;98115.02;1696339;84;21941;-76
2022/09/28 06:28:44;;;;;;;20.48;14.35;;;;;;;16.81;100.00;98116.20;1696428;84;20894;-66
2022/09/28 06:31:16;;;;;;;20.17;15.25;;;;;;;16.83;100.00;98110.45;1696528;84;20978;-75
2022/09/28 06:33:46;;;;;;;20.35;15.72;;;;;;;16.87;100.00;98109.07;1697136;84;20934;-70
2022/09/28 06:36:15;;;;;;;19.20;14.80;;;;;;;16.91;100.00;98109.84;1696418;83;21002;-75
2022/09/28 06:38:44;;;;;;;21.10;14.43;;;;;;;16.96;100.00;98105.86;1696936;84;21486;-65
2022/09/28 06:41:10;;;;;;;19.02;13.48;;;;;;;17.00;100.00;98104.69;1696516;84;21009;-74
2022/09/28 06:43:41;;;;;;;16.12;13.00;;;;;;;17.03;100.00;98094.74;1696563;84;20997;-75
2022/09/28 06:46:25;;;;;;;16.40;13.48;;;;;;;17.06;100.00;98088.99;1705080;84;20984;-73
2022/09/28 06:48:58;;;;;;;16.57;13.70;;;;;;;17.08;100.00;98091.56;1705666;84;21040;-74
2022/09/28 06:51:28;;;;;;;17.37;12.80;;;;;;;17.07;100.00;98089.98;1652100;84;21005;-64
2022/09/28 06:53:56;;;;;;;15.58;12.18;;;;;;;17.07;100.00;98087.78;1706184;84;21151;-75
2022/09/28 06:56:41;;;;;;;17.65;12.93;;;;;;;17.04;100.00;98080.43;1706193;84;21060;-75
2022/09/28 06:59:09;;;;;;;18.12;13.28;;;;;;;17.06;100.00;98075.85;1706126;84;21096;-76
2022/09/28 07:01:39;;;;;;;16.55;12.85;;;;;;;17.08;100.00;98090.75;1706053;84;21102;-72
2022/09/28 07:04:07;;;;;;;18.75;13.32;;;;;;;17.08;100.00;98090.75;1705670;84;21221;-74
2022/09/28 07:06:37;;;;;;;19.07;13.20;;;;;;;17.10;100.00;98089.80;1651271;84;20953;-71
2022/09/28 07:09:24;;;;;;;19.25;13.48;;;;;;;17.10;100.00;98080.86;1706201;84;20890;-65
2022/09/28 07:12:12;;;;;;;17.62;12.95;;;;;;;17.11;100.00;98077.48;1706211;84;20980;-74
2022/09/28 07:14:56;;;;;;;17.20;12.47;;;;;;;17.10;100.00;98074.49;1706138;84;20981;-72
2022/09/28 07:17:23;;;;;;;16.27;12.78;;;;;;;17.06;100.00;98066.73;1706460;84;21093;-69
2022/09/28 07:19:52;;;;;;;22.37;14.00;;;;;;;17.07;100.00;98063.55;1706104;84;21485;-75
2022/09/28 07:22:19;;;;;;;18.48;13.32;;;;;;;17.12;100.00;98062.38;1706108;84;21044;-69
2022/09/28 07:24:47;;;;;;;21.60;15.10;;;;;;;17.17;100.00;98054.20;1706046;84;20921;-71
2022/09/28 07:27:36;;;;;;;19.57;14.23;;;;;;;17.19;100.00;98056.00;1706144;84;20931;-75
2022/09/28 07:30:13;;;;;;;23.05;14.95;;;;;;;17.22;100.00;98055.19;1704591;84;21263;-75
2022/09/28 07:32:44;;;;;;;25.25;14.70;;;;;;;17.20;100.00;98051.42;1705754;84;21005;-72
2022/09/28 07:35:15;;;;;;;25.55;16.02;;;;;;;17.20;100.00;98050.63;1672716;82;20941;-74
2022/09/28 07:38:03;;;;;;;19.23;14.73;;;;;;;17.22;100.00;98053.21;1706142;84;21060;-74
2022/09/28 07:43:19;;;;;;;19.55;14.20;;;;;;;17.37;100.00;98047.59;1706102;84;21243;-75
2022/09/28 07:45:47;;;;;;;17.15;13.35;;;;;;;17.35;100.00;98051.41;1701836;84;21530;-75
2022/09/28 07:48:17;;;;;;;17.75;13.53;;;;;;;17.34;100.00;98053.38;1697859;83;20902;-75
2022/09/28 07:50:56;;;;;;;22.70;14.73;;;;;;;17.32;100.00;98050.79;1641565;87;20996;-71
2022/09/28 07:53:37;;;;;;;17.20;12.75;;;;;;;17.29;100.00;98052.41;1698068;84;21414;-76
2022/09/28 07:56:18;;;;;;;19.55;14.87;;;;;;;17.26;100.00;98055.98;1641682;87;21578;-75
2022/09/28 07:58:46;;;;;;;17.45;13.62;;;;;;;17.24;100.00;98055.00;1697341;82;20958;-74
2022/09/28 08:01:31;;;;;;;21.80;14.10;;;;;;;17.26;100.00;98060.94;1697911;84;20957;-74
2022/09/28 08:03:59;;;;;;;21.90;15.45;;;;;;;17.27;100.00;98052.80;1697791;84;20977;-73
2022/09/28 08:06:30;;;;;;;21.35;15.72;;;;;;;17.24;100.00;98052.81;1697885;84;21494;-75
2022/09/28 08:09:00;;;;;;;22.98;15.85;;;;;;;17.25;100.00;98055.19;1691585;84;21198;-74
2022/09/28 08:11:29;;;;;;;22.60;16.27;;;;;;;17.26;100.00;98050.42;1696397;84;21474;-66
2022/09/28 08:14:14;;;;;;;23.67;16.77;;;;;;;17.28;100.00;98050.20;1697825;84;21554;-74
2022/09/28 08:16:57;;;;;;;22.82;15.95;;;;;;;17.32;100.00;98048.00;1697540;84;20970;-75
2022/09/28 08:22:24;;;;;;;26.20;15.18;;;;;;;17.52;100.00;98042.17;1697867;84;21323;-73
2022/09/28 08:24:55;;;;;;;20.70;16.05;;;;;;;17.69;100.00;98041.73;1697522;84;21466;-74
2022/09/28 08:27:22;;;;;;;24.63;17.20;;;;;;;17.82;100.00;98039.27;1697715;84;21016;-71
2022/09/28 08:29:48;;;;;;;25.05;15.83;;;;;;;17.89;100.00;98043.42;1697722;84;21052;-73
2022/09/28 08:32:18;;;;;;;28.10;15.68;;;;;;;18.05;100.00;98042.92;1696228;84;20974;-74
2022/09/28 08:35:08;;;;;;;28.85;15.03;;;;;;;18.27;100.00;98051.17;1697838;83;21451;-74
2022/09/28 08:37:41;;;;;;;23.20;15.98;;;;;;;18.51;100.00;98040.88;1696353;84;21067;-70
2022/09/28 08:40:23;;;;;;;21.23;14.15;;;;;;;18.67;100.00;98038.34;1662286;84;21017;-71
2022/09/28 08:43:05;;;;;;;20.52;14.55;;;;;;;18.78;100.00;98037.47;1695977;84;21058;-71
2022/09/28 08:45:51;;;;;;;22.75;14.93;;;;;;;18.85;100.00;98032.59;1697811;84;21074;-74
2022/09/28 08:48:44;;;;;;;27.67;15.95;;;;;;;18.85;100.00;98032.59;1672095;84;21278;-75
2022/09/28 08:51:39;;;;;;;19.55;14.00;;;;;;;18.93;100.00;98038.92;1696644;84;20897;-75
2022/09/28 08:54:38;;;;;;;38.02;15.10;;;;;;;19.00;100.00;98033.87;1683128;84;21068;-72
2022/09/28 08:57:12;;;;;;;18.52;13.38;;;;;;;19.03;100.00;98040.61;1697632;84;20985;-71
2022/09/28 08:59:58;;;;;;;17.82;13.25;;;;;;;19.01;100.00;98039.63;1697728;84;21005;-72
2022/09/28 09:02:32;;;;;;;18.35;14.53;;;;;;;19.01;100.00;98036.04;1697761;84;21539;-75
2022/09/28 09:05:03;;;;;;;18.10;13.53;;;;;;;19.00;100.00;98030.28;1693981;84;20992;-75
2022/09/28 09:08:04;;;;;;;20.12;12.50;;;;;;;18.98;100.00;98036.28;1697452;84;20946;-76
2022/09/28 09:11:09;;;;;;;16.25;12.13;;;;;;;18.98;100.00;98034.88;1698084;84;21025;-74
2022/09/28 09:14:19;;;;;;;18.55;12.93;;;;;;;19.02;100.00;98037.64;1698013;84;20870;-74
2022/09/28 09:17:24;;;;;;;23.80;13.62;;;;;;;18.97;100.00;98036.88;1697849;84;21224;-75
2022/09/28 09:20:22;;;;;;;21.52;14.43;;;;;;;19.01;100.00;98031.26;1696460;84;21104;-69
2022/09/28 09:22:57;;;;;;;19.25;13.62;;;;;;;19.04;100.00;98026.23;1690322;84;21494;-74
2022/09/28 09:25:47;;;;;;;20.57;15.05;;;;;;;19.10;100.00;98027.98;1697861;84;21009;-75
2022/09/28 09:28:49;;;;;;;20.00;13.93;;;;;;;19.11;100.00;98008.66;1697740;83;20905;-75
2022/09/28 09:31:48;;;;;;;18.25;12.43;;;;;;;19.12;100.00;98017.83;1697849;84;21552;-73
2022/09/28 09:34:26;;;;;;;21.90;13.53;;;;;;;19.16;100.00;98022.16;1697872;83;21466;-75
2022/09/28 09:37:21;;;;;;;19.30;14.07;;;;;;;19.23;100.00;98014.94;1648116;86;21034;-76
2022/09/28 09:40:43;;;;;;;23.75;15.38;;;;;;;19.27;100.00;98019.86;1697252;84;21012;-76
2022/09/28 09:43:54;;;;;;;20.75;13.88;;;;;;;19.31;100.00;98022.02;1643397;87;20984;-75
2022/09/28 09:46:39;;;;;;;17.85;13.05;;;;;;;19.32;100.00;98022.20;1640356;87;39102;-70
2022/09/28 09:49:25;;;;;;;21.17;14.25;;;;;;;19.34;100.00;98028.94;1679482;84;20954;-71
2022/09/28 09:52:07;;;;;;;16.87;12.85;;;;;;;19.40;100.00;98029.28;1700561;84;21017;-71
2022/09/28 09:54:51;;;;;;;21.17;14.70;;;;;;;19.41;100.00;98026.69;1700456;84;21518;-74
2022/09/28 09:57:43;;;;;;;19.25;12.07;;;;;;;19.46;100.00;98030.39;1699112;84;21024;-73
2022/09/28 10:00:29;;;;;;;18.17;12.45;;;;;;;19.46;100.00;98033.19;1700532;84;21571;-73
2022/09/28 10:02:59;;;;;;;22.05;13.45;;;;;;;19.48;100.00;98042.56;1671116;84;21016;-69
2022/09/28 10:05:29;;;;;;;20.50;13.68;;;;;;;19.49;100.00;98034.96;1700337;84;21414;-74
2022/09/28 10:08:08;;;;;;;19.52;13.90;;;;;;;19.48;100.00;98036.19;1700649;84;20977;-73
2022/09/28 10:11:07;;;;;;;18.00;12.70;;;;;;;19.49;100.00;98036.36;1700455;84;20901;-69
2022/09/28 10:13:35;;;;;;;19.02;13.30;;;;;;;19.43;100.00;98039.61;1700475;84;21271;-68
2022/09/28 10:16:05;;;;;;;18.52;12.98;;;;;;;19.38;100.00;98030.30;1700590;84;21056;-71
2022/09/28 10:18:37;;;;;;;16.90;12.55;;;;;;;19.41;100.00;98037.06;1700320;84;21008;-66
2022/09/28 10:21:23;;;;;;;16.95;12.13;;;;;;;19.41;100.00;98032.88;1700772;84;21005;-67
2022/09/28 10:24:01;;;;;;;19.87;13.58;;;;;;;19.37;100.00;98032.11;1700745;84;20948;-67
2022/09/28 10:26:39;;;;;;;20.92;13.18;;;;;;;19.42;100.00;98033.05;1700441;84;21156;-67
2022/09/28 10:29:23;;;;;;;20.72;14.55;;;;;;;19.39;100.00;98029.10;1671425;84;20913;-71
2022/09/28 10:31:55;;;;;;;22.27;15.03;;;;;;;19.37;100.00;98027.92;1700454;84;21065;-69
2022/09/28 10:34:29;;;;;;;18.80;13.15;;;;;;;19.34;100.00;98028.94;1700397;83;21052;-66
2022/09/28 10:37:02;;;;;;;21.25;14.50;;;;;;;19.41;100.00;98030.88;1695695;84;21554;-66
2022/09/28 10:39:45;;;;;;;21.42;14.78;;;;;;;19.45;100.00;98031.61;1699567;84;21152;-68
2022/09/28 10:42:12;;;;;;;20.77;14.68;;;;;;;19.46;100.00;98035.98;1700825;84;20985;-69
2022/09/28 10:45:08;;;;;;;20.52;15.55;;;;;;;19.46;100.00;98033.19;1700349;84;20972;-73
2022/09/28 10:47:36;;;;;;;27.35;14.70;;;;;;;19.39;100.00;98031.09;1703143;84;21009;-71
2022/09/28 10:50:14;;;;;;;18.40;14.47;;;;;;;19.37;100.00;98030.11;1680216;84;21044;-66
2022/09/28 10:52:41;;;;;;;18.80;14.58;;;;;;;19.42;100.00;98026.06;1703543;82;21510;-70
2022/09/28 10:55:32;;;;;;;19.80;13.83;;;;;;;19.38;100.00;98028.13;1706385;84;21522;-68
2022/09/28 10:58:02;;;;;;;18.60;15.20;;;;;;;19.42;100.00;98027.46;1706306;84;20972;-66
2022/09/28 11:00:42;;;;;;;20.08;14.05;;;;;;;19.36;100.00;98025.75;1705452;84;21494;-68
2022/09/28 11:03:26;;;;;;;18.52;13.98;;;;;;;19.31;100.00;98023.41;1705849;84;20929;-75
2022/09/28 11:06:01;;;;;;;22.77;15.13;;;;;;;19.29;100.00;98028.02;1705947;84;21477;-76
2022/09/28 11:08:33;;;;;;;21.23;14.30;;;;;;;19.29;100.00;98028.61;1706033;84;21103;-68
2022/09/28 11:11:11;;;;;;;20.68;14.90;;;;;;;19.25;100.00;98028.66;1705904;84;20977;-76
2022/09/28 11:13:49;;;;;;;19.35;14.55;;;;;;;19.30;100.00;98031.59;1703686;84;21032;-74
2022/09/28 11:16:27;;;;;;;21.48;15.05;;;;;;;19.35;100.00;98025.55;1706114;84;20998;-70
2022/09/28 11:29:57;;;;;;;20.10;13.05;;;;;;;20.21;100.00;98025.47;1838904;77;22705;-80
2022/09/28 11:32:42;;;;;;;18.52;13.00;;;;;;;20.23;100.00;98028.64;1805964;79;21516;-77
2022/09/28 11:35:46;;;;;;;18.48;13.30;;;;;;;20.19;100.00;98018.91;1804035;79;20858;-81
2022/09/28 11:38:47;;;;;;;17.92;13.20;;;;;;;20.06;100.00;98022.27;1749295;81;20909;-80
2022/09/28 11:41:32;;;;;;;21.45;14.38;;;;;;;19.98;100.00;98019.37;1746075;82;21036;-72
2022/09/28 11:44:26;;;;;;;17.82;13.08;;;;;;;19.89;100.00;98022.67;1717324;82;20929;-79
2022/09/28 11:47:31;;;;;;;20.70;12.55;;;;;;;19.81;100.00;98020.59;1749931;82;20953;-73
2022/09/28 11:50:09;;;;;;;16.15;11.35;;;;;;;19.78;100.00;98023.44;1751620;82;21757;-73
2022/09/28 11:53:21;;;;;;;14.40;11.57;;;;;;;19.72;100.00;98025.89;1751545;82;20878;-69
2022/09/28 11:56:06;;;;;;;15.70;11.80;;;;;;;19.66;100.00;98027.58;1721739;82;21473;-70
2022/09/28 11:58:48;;;;;;;16.37;13.22;;;;;;;19.60;100.00;98032.05;1721879;82;20933;-72
2022/09/28 12:01:25;;;;;;;17.12;12.37;;;;;;;19.56;100.00;98032.89;1751546;82;20925;-80
2022/09/28 12:04:08;;;;;;;15.95;12.43;;;;;;;19.52;100.00;98036.32;1748592;82;21303;-70
2022/09/28 12:06:39;;;;;;;14.68;12.50;;;;;;;19.48;100.00;98034.19;1725949;81;20898;-72
2022/09/28 12:09:18;;;;;;;16.48;12.85;;;;;;;19.48;100.00;98030.00;1751687;82;21410;-72